Beaufort MCAS - Merritt Field
KNBC : now visible

Airfield :











YOU CAN JOIN US ON...

 
LOGIN :

Register | Disclaimer

   EN    FR    IT 

 









Legend :    VFR   Marginal VFR   IFR   Intensive IFR   Very Intensive IFR
Visi :
Ceiling :
>= 8 km
>= 3000ft
5 to 8 km
1000 to 3000 ft
1500m to 5 km
500 to 1000 ft
800 to 1500m
200 to 500 ft
< 800m
< 200 ft
Symbols :   Thunderstorms  Fog  Heavy snow  Heavy precipitations  Wind > 20 kt







- Airport Elevation : 37 ft


KNBC - Beaufort MCAS - Merritt Field

CURRENT METAR :
  • 200956Z 01008KT 10SM CLR 17/15 A3021 RMK AO2 SLP230 T01720150

EXPIRED METARs :
  • 200856Z 02009KT 10SM CLR 18/15 A3019 RMK AO2 SLP225 T01780150 55005
  • 200756Z 02009KT 10SM CLR 18/14 A3019 RMK AO2 SLP223 T01780144

TAF TAF KNBC
Valid from the 20 at 09:00 until the 21 at 09:00 UTC


2009/2109 04010KT 9999 FEW030 QNH3018INS
FM201600 06010G20KT 9999 FEW030 SCT050 BKN080 QNH3021INS
FM202200 09010KT 9999 FEW030 SCT050 QNH3020INS T27/2018Z T18/2109Z
No reported NOTAMs for that airfield.



MET'MAP, your aeronautical weather chart ! - Copyright ORBIFLY December 2007 - Disclaimer

ORBIFLY MET'MAP TEAM :

Programming & Development : Alexandra Zaïnal
Concept & Development : Baudouin d'Aumeries
Co-Development & Prog : Marc-Olivier Méhu
Technical & hardware support : Manuel Goepfert

Contact : metmap@orbifly.com




SOURCES & CREDITS :

   NOAA       Earth
Advisory